sensor_id;sensor_type;location;lat;lon;timestamp;P1;durP1;ratioP1;P2;durP2;ratioP2
10430;SDS011;5262;59.958;17.726;2022-11-14T00:00:39;22.07;;;1.93;;
10430;SDS011;5262;59.958;17.726;2022-11-14T00:03:06;12.10;;;2.03;;
10430;SDS011;5262;59.958;17.726;2022-11-14T00:05:34;18.17;;;1.70;;
10430;SDS011;5262;59.958;17.726;2022-11-14T00:08:08;13.30;;;1.67;;
10430;SDS011;5262;59.958;17.726;2022-11-14T00:10:44;19.83;;;2.10;;
10430;SDS011;5262;59.958;17.726;2022-11-14T00:13:11;20.37;;;2.13;;
10430;SDS011;5262;59.958;17.726;2022-11-14T00:15:39;17.93;;;2.33;;
10430;SDS011;5262;59.958;17.726;2022-11-14T00:18:05;9.97;;;2.10;;
10430;SDS011;5262;59.958;17.726;2022-11-14T00:20:31;17.70;;;2.20;;
10430;SDS011;5262;59.958;17.726;2022-11-14T00:22:57;9.27;;;1.93;;
10430;SDS011;5262;59.958;17.726;2022-11-14T00:25:23;3.90;;;1.90;;
10430;SDS011;5262;59.958;17.726;2022-11-14T00:27:48;9.07;;;1.83;;
10430;SDS011;5262;59.958;17.726;2022-11-14T00:30:14;9.13;;;2.60;;
10430;SDS011;5262;59.958;17.726;2022-11-14T00:32:40;4.10;;;1.77;;
10430;SDS011;5262;59.958;17.726;2022-11-14T00:35:05;7.90;;;1.90;;
10430;SDS011;5262;59.958;17.726;2022-11-14T00:37:33;14.63;;;2.00;;
10430;SDS011;5262;59.958;17.726;2022-11-14T00:39:59;17.73;;;2.20;;
10430;SDS011;5262;59.958;17.726;2022-11-14T00:42:25;16.63;;;2.30;;
10430;SDS011;5262;59.958;17.726;2022-11-14T00:44:50;24.37;;;3.33;;
10430;SDS011;5262;59.958;17.726;2022-11-14T00:47:16;50.57;;;3.63;;
10430;SDS011;5262;59.958;17.726;2022-11-14T00:49:41;19.80;;;2.63;;
10430;SDS011;5262;59.958;17.726;2022-11-14T00:52:07;15.37;;;2.37;;
10430;SDS011;5262;59.958;17.726;2022-11-14T00:54:33;22.13;;;3.63;;
10430;SDS011;5262;59.958;17.726;2022-11-14T00:56:58;20.97;;;2.37;;
10430;SDS011;5262;59.958;17.726;2022-11-14T00:59:24;10.63;;;2.30;;
10430;SDS011;5262;59.958;17.726;2022-11-14T01:01:50;24.37;;;4.60;;
10430;SDS011;5262;59.958;17.726;2022-11-14T01:04:15;17.13;;;2.60;;
10430;SDS011;5262;59.958;17.726;2022-11-14T01:06:41;16.07;;;2.20;;
10430;SDS011;5262;59.958;17.726;2022-11-14T01:09:07;14.07;;;2.10;;
10430;SDS011;5262;59.958;17.726;2022-11-14T01:11:33;18.73;;;1.97;;
10430;SDS011;5262;59.958;17.726;2022-11-14T01:13:58;31.80;;;2.50;;
10430;SDS011;5262;59.958;17.726;2022-11-14T01:16:24;21.70;;;2.37;;
10430;SDS011;5262;59.958;17.726;2022-11-14T01:18:49;31.13;;;4.00;;
10430;SDS011;5262;59.958;17.726;2022-11-14T01:21:15;20.57;;;2.53;;
10430;SDS011;5262;59.958;17.726;2022-11-14T01:23:41;19.93;;;2.20;;
10430;SDS011;5262;59.958;17.726;2022-11-14T01:26:11;14.67;;;1.93;;
10430;SDS011;5262;59.958;17.726;2022-11-14T01:28:38;18.80;;;3.07;;
10430;SDS011;5262;59.958;17.726;2022-11-14T01:31:12;13.37;;;1.70;;
10430;SDS011;5262;59.958;17.726;2022-11-14T01:33:49;14.67;;;1.83;;
10430;SDS011;5262;59.958;17.726;2022-11-14T01:36:16;22.57;;;2.13;;
10430;SDS011;5262;59.958;17.726;2022-11-14T01:38:42;13.00;;;1.70;;
10430;SDS011;5262;59.958;17.726;2022-11-14T01:41:08;10.73;;;1.83;;
10430;SDS011;5262;59.958;17.726;2022-11-14T01:43:38;8.20;;;1.77;;
10430;SDS011;5262;59.958;17.726;2022-11-14T01:46:18;11.43;;;1.57;;
10430;SDS011;5262;59.958;17.726;2022-11-14T01:49:12;6.17;;;1.37;;
10430;SDS011;5262;59.958;17.726;2022-11-14T01:51:44;12.93;;;2.23;;
10430;SDS011;5262;59.958;17.726;2022-11-14T01:54:24;5.27;;;1.70;;
10430;SDS011;5262;59.958;17.726;2022-11-14T01:56:54;4.60;;;1.53;;
10430;SDS011;5262;59.958;17.726;2022-11-14T01:59:25;11.13;;;2.10;;
10430;SDS011;5262;59.958;17.726;2022-11-14T02:01:55;4.77;;;1.70;;
10430;SDS011;5262;59.958;17.726;2022-11-14T02:04:24;4.83;;;2.10;;
10430;SDS011;5262;59.958;17.726;2022-11-14T02:06:54;13.37;;;2.17;;
10430;SDS011;5262;59.958;17.726;2022-11-14T02:09:23;3.10;;;1.50;;
10430;SDS011;5262;59.958;17.726;2022-11-14T02:11:49;8.97;;;2.00;;
10430;SDS011;5262;59.958;17.726;2022-11-14T02:14:17;7.47;;;1.80;;
10430;SDS011;5262;59.958;17.726;2022-11-14T02:16:43;15.33;;;1.80;;
10430;SDS011;5262;59.958;17.726;2022-11-14T02:19:09;6.50;;;1.77;;
10430;SDS011;5262;59.958;17.726;2022-11-14T02:21:37;13.57;;;2.60;;
10430;SDS011;5262;59.958;17.726;2022-11-14T02:24:04;3.87;;;1.63;;
10430;SDS011;5262;59.958;17.726;2022-11-14T02:26:33;15.43;;;2.00;;
10430;SDS011;5262;59.958;17.726;2022-11-14T02:28:59;6.80;;;1.40;;
10430;SDS011;5262;59.958;17.726;2022-11-14T02:31:24;11.70;;;1.90;;
10430;SDS011;5262;59.958;17.726;2022-11-14T02:33:50;5.47;;;1.57;;
10430;SDS011;5262;59.958;17.726;2022-11-14T02:36:16;8.77;;;1.80;;
10430;SDS011;5262;59.958;17.726;2022-11-14T02:38:41;14.23;;;1.70;;
10430;SDS011;5262;59.958;17.726;2022-11-14T02:41:07;7.37;;;1.83;;
10430;SDS011;5262;59.958;17.726;2022-11-14T02:43:33;12.97;;;1.80;;
10430;SDS011;5262;59.958;17.726;2022-11-14T02:45:58;6.70;;;1.50;;
10430;SDS011;5262;59.958;17.726;2022-11-14T02:48:24;14.80;;;1.97;;
10430;SDS011;5262;59.958;17.726;2022-11-14T02:50:50;13.87;;;1.90;;
10430;SDS011;5262;59.958;17.726;2022-11-14T02:53:15;8.50;;;1.77;;
10430;SDS011;5262;59.958;17.726;2022-11-14T02:55:41;5.73;;;1.80;;
10430;SDS011;5262;59.958;17.726;2022-11-14T02:58:06;5.53;;;1.90;;
10430;SDS011;5262;59.958;17.726;2022-11-14T03:00:32;12.53;;;1.77;;
10430;SDS011;5262;59.958;17.726;2022-11-14T03:02:58;6.23;;;1.67;;
10430;SDS011;5262;59.958;17.726;2022-11-14T03:05:24;7.27;;;1.80;;
10430;SDS011;5262;59.958;17.726;2022-11-14T03:07:53;10.10;;;1.33;;
10430;SDS011;5262;59.958;17.726;2022-11-14T03:10:19;5.60;;;1.80;;
10430;SDS011;5262;59.958;17.726;2022-11-14T03:12:45;11.53;;;1.70;;
10430;SDS011;5262;59.958;17.726;2022-11-14T03:15:11;4.93;;;1.60;;
10430;SDS011;5262;59.958;17.726;2022-11-14T03:17:37;5.37;;;1.40;;
10430;SDS011;5262;59.958;17.726;2022-11-14T03:20:03;11.87;;;2.03;;
10430;SDS011;5262;59.958;17.726;2022-11-14T03:22:30;4.10;;;1.73;;
10430;SDS011;5262;59.958;17.726;2022-11-14T03:24:56;9.60;;;1.80;;
10430;SDS011;5262;59.958;17.726;2022-11-14T03:27:21;10.80;;;1.57;;
10430;SDS011;5262;59.958;17.726;2022-11-14T03:29:47;4.27;;;1.80;;
10430;SDS011;5262;59.958;17.726;2022-11-14T03:32:13;11.17;;;2.10;;
10430;SDS011;5262;59.958;17.726;2022-11-14T03:34:39;14.23;;;1.70;;
10430;SDS011;5262;59.958;17.726;2022-11-14T03:37:04;8.97;;;1.60;;
10430;SDS011;5262;59.958;17.726;2022-11-14T03:39:30;19.13;;;2.10;;
10430;SDS011;5262;59.958;17.726;2022-11-14T03:41:56;14.13;;;2.10;;
10430;SDS011;5262;59.958;17.726;2022-11-14T03:44:21;9.77;;;2.17;;
10430;SDS011;5262;59.958;17.726;2022-11-14T03:46:47;3.70;;;2.13;;
10430;SDS011;5262;59.958;17.726;2022-11-14T03:49:13;5.93;;;1.67;;
10430;SDS011;5262;59.958;17.726;2022-11-14T03:51:38;6.50;;;1.90;;
10430;SDS011;5262;59.958;17.726;2022-11-14T03:54:04;13.67;;;2.47;;
10430;SDS011;5262;59.958;17.726;2022-11-14T03:56:29;9.20;;;2.37;;
10430;SDS011;5262;59.958;17.726;2022-11-14T03:58:55;11.17;;;2.40;;
10430;SDS011;5262;59.958;17.726;2022-11-14T04:01:21;15.20;;;2.80;;
10430;SDS011;5262;59.958;17.726;2022-11-14T04:03:46;10.90;;;2.60;;
10430;SDS011;5262;59.958;17.726;2022-11-14T04:06:12;18.90;;;2.50;;
10430;SDS011;5262;59.958;17.726;2022-11-14T04:08:39;10.77;;;2.20;;
10430;SDS011;5262;59.958;17.726;2022-11-14T04:11:05;10.13;;;2.63;;
10430;SDS011;5262;59.958;17.726;2022-11-14T04:13:34;16.67;;;2.90;;
10430;SDS011;5262;59.958;17.726;2022-11-14T04:16:19;13.57;;;2.73;;
10430;SDS011;5262;59.958;17.726;2022-11-14T04:19:05;4.83;;;2.03;;
10430;SDS011;5262;59.958;17.726;2022-11-14T04:21:51;9.87;;;2.00;;
10430;SDS011;5262;59.958;17.726;2022-11-14T04:24:36;17.53;;;3.53;;
10430;SDS011;5262;59.958;17.726;2022-11-14T04:27:23;11.70;;;2.20;;
10430;SDS011;5262;59.958;17.726;2022-11-14T04:30:08;9.50;;;2.03;;
10430;SDS011;5262;59.958;17.726;2022-11-14T04:32:55;6.93;;;2.67;;
10430;SDS011;5262;59.958;17.726;2022-11-14T04:35:40;12.67;;;2.30;;
10430;SDS011;5262;59.958;17.726;2022-11-14T04:38:26;10.90;;;2.03;;
10430;SDS011;5262;59.958;17.726;2022-11-14T04:41:12;9.23;;;1.90;;
10430;SDS011;5262;59.958;17.726;2022-11-14T04:43:58;12.33;;;2.17;;
10430;SDS011;5262;59.958;17.726;2022-11-14T04:46:43;5.07;;;1.70;;
10430;SDS011;5262;59.958;17.726;2022-11-14T04:49:25;9.57;;;2.33;;
10430;SDS011;5262;59.958;17.726;2022-11-14T04:51:51;11.87;;;2.13;;
10430;SDS011;5262;59.958;17.726;2022-11-14T04:54:28;4.37;;;1.60;;
10430;SDS011;5262;59.958;17.726;2022-11-14T04:56:54;6.70;;;1.80;;
10430;SDS011;5262;59.958;17.726;2022-11-14T04:59:20;3.90;;;1.43;;
10430;SDS011;5262;59.958;17.726;2022-11-14T05:01:45;6.83;;;1.83;;
10430;SDS011;5262;59.958;17.726;2022-11-14T05:04:11;3.47;;;1.53;;
10430;SDS011;5262;59.958;17.726;2022-11-14T05:06:37;2.90;;;1.43;;
10430;SDS011;5262;59.958;17.726;2022-11-14T05:09:02;2.87;;;1.83;;
10430;SDS011;5262;59.958;17.726;2022-11-14T05:11:28;4.97;;;1.87;;
10430;SDS011;5262;59.958;17.726;2022-11-14T05:13:53;1.90;;;1.63;;
10430;SDS011;5262;59.958;17.726;2022-11-14T05:16:19;5.17;;;1.87;;
10430;SDS011;5262;59.958;17.726;2022-11-14T05:18:45;10.67;;;1.80;;
10430;SDS011;5262;59.958;17.726;2022-11-14T05:21:11;7.77;;;1.73;;
10430;SDS011;5262;59.958;17.726;2022-11-14T05:23:38;12.17;;;2.00;;
10430;SDS011;5262;59.958;17.726;2022-11-14T05:26:05;9.27;;;2.40;;
10430;SDS011;5262;59.958;17.726;2022-11-14T05:28:36;21.70;;;2.73;;
10430;SDS011;5262;59.958;17.726;2022-11-14T05:31:02;6.53;;;1.70;;
10430;SDS011;5262;59.958;17.726;2022-11-14T05:33:29;9.33;;;2.20;;
10430;SDS011;5262;59.958;17.726;2022-11-14T05:35:55;19.07;;;2.53;;
10430;SDS011;5262;59.958;17.726;2022-11-14T05:38:20;4.23;;;1.93;;
10430;SDS011;5262;59.958;17.726;2022-11-14T05:40:46;7.40;;;2.03;;
10430;SDS011;5262;59.958;17.726;2022-11-14T05:43:12;8.30;;;2.27;;
10430;SDS011;5262;59.958;17.726;2022-11-14T05:45:38;12.33;;;2.93;;
10430;SDS011;5262;59.958;17.726;2022-11-14T05:48:03;9.60;;;2.10;;
10430;SDS011;5262;59.958;17.726;2022-11-14T05:50:29;11.23;;;2.00;;
10430;SDS011;5262;59.958;17.726;2022-11-14T05:52:55;25.90;;;2.87;;
10430;SDS011;5262;59.958;17.726;2022-11-14T05:55:21;17.53;;;2.50;;
10430;SDS011;5262;59.958;17.726;2022-11-14T05:57:46;13.67;;;2.77;;
10430;SDS011;5262;59.958;17.726;2022-11-14T06:00:12;6.23;;;2.63;;
10430;SDS011;5262;59.958;17.726;2022-11-14T06:02:38;25.33;;;3.93;;
10430;SDS011;5262;59.958;17.726;2022-11-14T06:05:04;24.03;;;3.17;;
10430;SDS011;5262;59.958;17.726;2022-11-14T06:07:30;12.13;;;2.77;;
10430;SDS011;5262;59.958;17.726;2022-11-14T06:09:56;6.17;;;2.83;;
10430;SDS011;5262;59.958;17.726;2022-11-14T06:12:22;2.73;;;2.20;;
10430;SDS011;5262;59.958;17.726;2022-11-14T06:14:47;9.43;;;2.57;;
10430;SDS011;5262;59.958;17.726;2022-11-14T06:17:13;2.30;;;2.10;;
10430;SDS011;5262;59.958;17.726;2022-11-14T06:19:39;3.20;;;2.20;;
10430;SDS011;5262;59.958;17.726;2022-11-14T06:22:04;9.70;;;3.47;;
10430;SDS011;5262;59.958;17.726;2022-11-14T06:24:30;6.53;;;2.57;;
10430;SDS011;5262;59.958;17.726;2022-11-14T06:26:55;4.23;;;1.90;;
10430;SDS011;5262;59.958;17.726;2022-11-14T06:29:21;3.77;;;2.27;;
10430;SDS011;5262;59.958;17.726;2022-11-14T06:31:47;6.13;;;2.00;;
10430;SDS011;5262;59.958;17.726;2022-11-14T06:34:12;3.30;;;1.80;;
10430;SDS011;5262;59.958;17.726;2022-11-14T06:36:38;3.37;;;1.70;;
10430;SDS011;5262;59.958;17.726;2022-11-14T06:39:04;7.03;;;1.83;;
10430;SDS011;5262;59.958;17.726;2022-11-14T06:41:29;7.70;;;2.00;;
10430;SDS011;5262;59.958;17.726;2022-11-14T06:43:55;5.20;;;2.40;;
10430;SDS011;5262;59.958;17.726;2022-11-14T06:46:21;8.33;;;3.10;;
10430;SDS011;5262;59.958;17.726;2022-11-14T06:48:47;15.13;;;2.50;;
10430;SDS011;5262;59.958;17.726;2022-11-14T06:51:14;5.57;;;2.40;;
10430;SDS011;5262;59.958;17.726;2022-11-14T06:53:41;34.77;;;3.00;;
10430;SDS011;5262;59.958;17.726;2022-11-14T06:56:08;8.40;;;2.40;;
10430;SDS011;5262;59.958;17.726;2022-11-14T06:58:39;10.63;;;2.47;;
10430;SDS011;5262;59.958;17.726;2022-11-14T07:01:17;4.50;;;2.50;;
10430;SDS011;5262;59.958;17.726;2022-11-14T07:03:43;9.13;;;2.20;;
10430;SDS011;5262;59.958;17.726;2022-11-14T07:06:11;2.30;;;1.90;;
10430;SDS011;5262;59.958;17.726;2022-11-14T07:08:44;2.30;;;2.10;;
10430;SDS011;5262;59.958;17.726;2022-11-14T07:11:10;10.50;;;2.40;;
10430;SDS011;5262;59.958;17.726;2022-11-14T07:13:47;6.07;;;2.27;;
10430;SDS011;5262;59.958;17.726;2022-11-14T07:16:13;3.93;;;2.43;;
10430;SDS011;5262;59.958;17.726;2022-11-14T07:18:39;2.30;;;2.10;;
10430;SDS011;5262;59.958;17.726;2022-11-14T07:21:05;5.47;;;2.67;;
10430;SDS011;5262;59.958;17.726;2022-11-14T07:23:31;8.83;;;2.10;;
10430;SDS011;5262;59.958;17.726;2022-11-14T07:26:01;5.10;;;2.50;;
10430;SDS011;5262;59.958;17.726;2022-11-14T07:28:31;9.73;;;2.60;;
10430;SDS011;5262;59.958;17.726;2022-11-14T07:31:01;29.43;;;3.00;;
10430;SDS011;5262;59.958;17.726;2022-11-14T07:33:28;3.03;;;2.50;;
10430;SDS011;5262;59.958;17.726;2022-11-14T07:35:54;17.23;;;2.80;;
10430;SDS011;5262;59.958;17.726;2022-11-14T07:38:20;10.90;;;2.30;;
10430;SDS011;5262;59.958;17.726;2022-11-14T07:40:55;4.53;;;2.23;;
10430;SDS011;5262;59.958;17.726;2022-11-14T07:43:22;9.40;;;2.67;;
10430;SDS011;5262;59.958;17.726;2022-11-14T07:45:47;20.67;;;3.00;;
10430;SDS011;5262;59.958;17.726;2022-11-14T07:48:13;7.53;;;2.40;;
10430;SDS011;5262;59.958;17.726;2022-11-14T07:50:39;7.47;;;2.27;;
10430;SDS011;5262;59.958;17.726;2022-11-14T07:53:04;7.90;;;2.63;;
10430;SDS011;5262;59.958;17.726;2022-11-14T07:55:30;3.20;;;2.10;;
10430;SDS011;5262;59.958;17.726;2022-11-14T07:57:58;9.13;;;2.40;;
10430;SDS011;5262;59.958;17.726;2022-11-14T08:00:24;7.63;;;2.23;;
10430;SDS011;5262;59.958;17.726;2022-11-14T08:02:50;5.20;;;2.10;;
10430;SDS011;5262;59.958;17.726;2022-11-14T08:05:16;2.20;;;2.00;;
10430;SDS011;5262;59.958;17.726;2022-11-14T08:07:41;3.60;;;2.10;;
10430;SDS011;5262;59.958;17.726;2022-11-14T08:10:08;2.33;;;2.10;;
10430;SDS011;5262;59.958;17.726;2022-11-14T08:12:36;4.07;;;2.30;;
10430;SDS011;5262;59.958;17.726;2022-11-14T08:15:04;5.13;;;2.80;;
10430;SDS011;5262;59.958;17.726;2022-11-14T08:17:34;2.53;;;2.30;;
10430;SDS011;5262;59.958;17.726;2022-11-14T08:20:00;3.93;;;2.03;;
10430;SDS011;5262;59.958;17.726;2022-11-14T08:22:26;4.93;;;2.47;;
10430;SDS011;5262;59.958;17.726;2022-11-14T08:24:51;3.37;;;2.37;;
10430;SDS011;5262;59.958;17.726;2022-11-14T08:27:17;4.53;;;2.40;;
10430;SDS011;5262;59.958;17.726;2022-11-14T08:29:43;2.93;;;2.37;;
10430;SDS011;5262;59.958;17.726;2022-11-14T08:32:09;2.20;;;1.90;;
10430;SDS011;5262;59.958;17.726;2022-11-14T08:34:34;2.27;;;1.90;;
10430;SDS011;5262;59.958;17.726;2022-11-14T08:37:01;2.50;;;2.20;;
10430;SDS011;5262;59.958;17.726;2022-11-14T08:39:27;3.37;;;1.73;;
10430;SDS011;5262;59.958;17.726;2022-11-14T08:41:53;2.53;;;2.10;;
10430;SDS011;5262;59.958;17.726;2022-11-14T08:44:19;1.90;;;1.70;;
10430;SDS011;5262;59.958;17.726;2022-11-14T08:46:45;1.90;;;1.77;;
10430;SDS011;5262;59.958;17.726;2022-11-14T08:49:10;2.37;;;1.80;;
10430;SDS011;5262;59.958;17.726;2022-11-14T08:51:36;2.03;;;1.67;;
10430;SDS011;5262;59.958;17.726;2022-11-14T08:54:02;5.33;;;3.00;;
10430;SDS011;5262;59.958;17.726;2022-11-14T08:56:27;2.73;;;2.20;;
10430;SDS011;5262;59.958;17.726;2022-11-14T08:58:53;2.20;;;2.00;;
10430;SDS011;5262;59.958;17.726;2022-11-14T09:01:19;2.23;;;2.03;;
10430;SDS011;5262;59.958;17.726;2022-11-14T09:03:44;2.33;;;1.80;;
10430;SDS011;5262;59.958;17.726;2022-11-14T09:06:10;1.67;;;1.43;;
10430;SDS011;5262;59.958;17.726;2022-11-14T09:08:35;2.73;;;2.10;;
10430;SDS011;5262;59.958;17.726;2022-11-14T09:11:01;3.33;;;2.17;;
10430;SDS011;5262;59.958;17.726;2022-11-14T09:13:27;2.77;;;2.00;;
10430;SDS011;5262;59.958;17.726;2022-11-14T09:15:55;2.70;;;2.37;;
10430;SDS011;5262;59.958;17.726;2022-11-14T09:18:21;3.63;;;2.40;;
10430;SDS011;5262;59.958;17.726;2022-11-14T09:20:47;3.30;;;2.57;;
10430;SDS011;5262;59.958;17.726;2022-11-14T09:23:12;2.80;;;2.50;;
10430;SDS011;5262;59.958;17.726;2022-11-14T09:25:38;3.10;;;2.80;;
10430;SDS011;5262;59.958;17.726;2022-11-14T09:28:04;2.87;;;2.13;;
10430;SDS011;5262;59.958;17.726;2022-11-14T09:30:31;4.07;;;1.77;;
10430;SDS011;5262;59.958;17.726;2022-11-14T09:32:58;3.47;;;1.50;;
10430;SDS011;5262;59.958;17.726;2022-11-14T09:35:25;2.60;;;1.60;;
10430;SDS011;5262;59.958;17.726;2022-11-14T09:37:59;1.57;;;1.47;;
10430;SDS011;5262;59.958;17.726;2022-11-14T09:40:30;3.13;;;1.20;;
10430;SDS011;5262;59.958;17.726;2022-11-14T09:43:33;1.70;;;1.30;;
10430;SDS011;5262;59.958;17.726;2022-11-14T09:46:14;5.90;;;1.23;;
10430;SDS011;5262;59.958;17.726;2022-11-14T09:48:46;2.37;;;1.70;;
10430;SDS011;5262;59.958;17.726;2022-11-14T09:51:18;2.77;;;2.20;;
10430;SDS011;5262;59.958;17.726;2022-11-14T09:53:50;5.43;;;4.00;;
10430;SDS011;5262;59.958;17.726;2022-11-14T09:56:21;5.47;;;1.43;;
10430;SDS011;5262;59.958;17.726;2022-11-14T09:58:51;1.13;;;0.83;;
10430;SDS011;5262;59.958;17.726;2022-11-14T10:04:24;1.53;;;0.90;;
10430;SDS011;5262;59.958;17.726;2022-11-14T10:07:34;1.50;;;0.70;;
10430;SDS011;5262;59.958;17.726;2022-11-14T10:16:41;3.40;;;0.90;;
10430;SDS011;5262;59.958;17.726;2022-11-14T10:19:17;1.00;;;0.73;;
10430;SDS011;5262;59.958;17.726;2022-11-14T10:25:02;1.07;;;0.73;;
10430;SDS011;5262;59.958;17.726;2022-11-14T10:27:41;2.20;;;0.80;;
10430;SDS011;5262;59.958;17.726;2022-11-14T10:30:16;1.87;;;0.90;;
10430;SDS011;5262;59.958;17.726;2022-11-14T10:38:03;3.03;;;0.80;;
10430;SDS011;5262;59.958;17.726;2022-11-14T10:40:44;1.90;;;1.10;;
10430;SDS011;5262;59.958;17.726;2022-11-14T10:43:24;2.33;;;0.93;;
10430;SDS011;5262;59.958;17.726;2022-11-14T10:46:04;0.77;;;0.77;;
10430;SDS011;5262;59.958;17.726;2022-11-14T10:48:39;3.67;;;1.00;;
10430;SDS011;5262;59.958;17.726;2022-11-14T10:51:17;1.30;;;0.83;;
10430;SDS011;5262;59.958;17.726;2022-11-14T10:57:21;1.90;;;1.00;;
10430;SDS011;5262;59.958;17.726;2022-11-14T10:59:47;1.70;;;1.10;;
10430;SDS011;5262;59.958;17.726;2022-11-14T11:02:13;3.03;;;1.20;;
10430;SDS011;5262;59.958;17.726;2022-11-14T11:04:40;1.00;;;0.90;;
10430;SDS011;5262;59.958;17.726;2022-11-14T11:09:34;1.67;;;1.30;;
10430;SDS011;5262;59.958;17.726;2022-11-14T11:12:21;4.00;;;1.07;;
10430;SDS011;5262;59.958;17.726;2022-11-14T11:18:03;1.77;;;1.17;;
10430;SDS011;5262;59.958;17.726;2022-11-14T11:20:44;3.20;;;1.13;;
10430;SDS011;5262;59.958;17.726;2022-11-14T11:23:27;2.67;;;1.33;;
10430;SDS011;5262;59.958;17.726;2022-11-14T11:25:59;2.93;;;1.00;;
10430;SDS011;5262;59.958;17.726;2022-11-14T11:28:32;1.87;;;1.33;;
10430;SDS011;5262;59.958;17.726;2022-11-14T11:31:00;5.43;;;3.90;;
10430;SDS011;5262;59.958;17.726;2022-11-14T11:33:29;2.57;;;2.30;;
10430;SDS011;5262;59.958;17.726;2022-11-14T11:36:03;3.40;;;1.70;;
10430;SDS011;5262;59.958;17.726;2022-11-14T11:38:31;1.80;;;1.60;;
10430;SDS011;5262;59.958;17.726;2022-11-14T11:41:04;2.17;;;1.63;;
10430;SDS011;5262;59.958;17.726;2022-11-14T11:43:59;3.17;;;1.30;;
10430;SDS011;5262;59.958;17.726;2022-11-14T11:46:34;1.50;;;1.40;;
10430;SDS011;5262;59.958;17.726;2022-11-14T11:49:09;3.53;;;1.60;;
10430;SDS011;5262;59.958;17.726;2022-11-14T11:51:49;2.13;;;1.90;;
10430;SDS011;5262;59.958;17.726;2022-11-14T11:54:19;2.07;;;1.57;;
10430;SDS011;5262;59.958;17.726;2022-11-14T11:56:51;1.90;;;1.80;;
10430;SDS011;5262;59.958;17.726;2022-11-14T12:01:49;2.27;;;1.40;;
10430;SDS011;5262;59.958;17.726;2022-11-14T12:04:16;1.60;;;1.50;;
10430;SDS011;5262;59.958;17.726;2022-11-14T12:06:44;1.67;;;1.57;;
10430;SDS011;5262;59.958;17.726;2022-11-14T12:09:20;1.57;;;1.47;;
10430;SDS011;5262;59.958;17.726;2022-11-14T12:11:54;3.33;;;1.60;;
10430;SDS011;5262;59.958;17.726;2022-11-14T12:17:28;2.80;;;1.50;;
10430;SDS011;5262;59.958;17.726;2022-11-14T12:23:19;2.40;;;1.20;;
10430;SDS011;5262;59.958;17.726;2022-11-14T12:26:12;4.07;;;1.47;;
10430;SDS011;5262;59.958;17.726;2022-11-14T12:32:03;1.40;;;1.23;;
10430;SDS011;5262;59.958;17.726;2022-11-14T12:34:36;1.57;;;1.47;;
10430;SDS011;5262;59.958;17.726;2022-11-14T12:37:07;3.90;;;1.50;;
10430;SDS011;5262;59.958;17.726;2022-11-14T12:40:00;3.50;;;1.60;;
10430;SDS011;5262;59.958;17.726;2022-11-14T12:42:29;2.07;;;1.60;;
10430;SDS011;5262;59.958;17.726;2022-11-14T12:44:56;2.13;;;1.90;;
10430;SDS011;5262;59.958;17.726;2022-11-14T12:47:22;1.43;;;1.30;;
10430;SDS011;5262;59.958;17.726;2022-11-14T12:55:03;2.90;;;2.33;;
10430;SDS011;5262;59.958;17.726;2022-11-14T12:57:40;2.83;;;1.60;;
10430;SDS011;5262;59.958;17.726;2022-11-14T13:00:21;3.90;;;2.20;;
10430;SDS011;5262;59.958;17.726;2022-11-14T13:05:29;3.13;;;2.37;;
10430;SDS011;5262;59.958;17.726;2022-11-14T13:10:41;4.23;;;2.40;;
10430;SDS011;5262;59.958;17.726;2022-11-14T13:15:53;4.33;;;3.20;;
10430;SDS011;5262;59.958;17.726;2022-11-14T13:18:51;4.93;;;3.03;;
10430;SDS011;5262;59.958;17.726;2022-11-14T13:21:36;3.30;;;2.63;;
10430;SDS011;5262;59.958;17.726;2022-11-14T13:24:15;4.47;;;2.90;;
10430;SDS011;5262;59.958;17.726;2022-11-14T13:26:47;4.53;;;2.40;;
10430;SDS011;5262;59.958;17.726;2022-11-14T13:32:08;3.37;;;2.60;;
10430;SDS011;5262;59.958;17.726;2022-11-14T13:34:36;3.10;;;2.40;;
10430;SDS011;5262;59.958;17.726;2022-11-14T13:42:43;5.17;;;2.60;;
10430;SDS011;5262;59.958;17.726;2022-11-14T13:50:40;3.63;;;2.57;;
10430;SDS011;5262;59.958;17.726;2022-11-14T13:53:12;6.27;;;5.10;;
10430;SDS011;5262;59.958;17.726;2022-11-14T13:55:57;6.57;;;5.70;;
10430;SDS011;5262;59.958;17.726;2022-11-14T14:01:14;5.23;;;2.53;;
10430;SDS011;5262;59.958;17.726;2022-11-14T14:06:45;4.50;;;4.10;;
10430;SDS011;5262;59.958;17.726;2022-11-14T14:09:26;4.60;;;2.73;;
10430;SDS011;5262;59.958;17.726;2022-11-14T14:17:26;6.33;;;2.77;;
10430;SDS011;5262;59.958;17.726;2022-11-14T14:23:11;3.97;;;2.50;;
10430;SDS011;5262;59.958;17.726;2022-11-14T14:31:48;4.73;;;3.20;;
10430;SDS011;5262;59.958;17.726;2022-11-14T14:34:28;5.57;;;2.87;;
10430;SDS011;5262;59.958;17.726;2022-11-14T14:36:56;5.80;;;3.13;;
10430;SDS011;5262;59.958;17.726;2022-11-14T14:39:23;4.83;;;3.53;;
10430;SDS011;5262;59.958;17.726;2022-11-14T14:41:50;5.13;;;3.10;;
10430;SDS011;5262;59.958;17.726;2022-11-14T14:44:30;6.03;;;3.10;;
10430;SDS011;5262;59.958;17.726;2022-11-14T14:47:15;5.87;;;2.67;;
10430;SDS011;5262;59.958;17.726;2022-11-14T14:49:42;10.53;;;3.17;;
10430;SDS011;5262;59.958;17.726;2022-11-14T14:52:18;6.17;;;3.40;;
10430;SDS011;5262;59.958;17.726;2022-11-14T14:54:55;8.83;;;3.13;;
10430;SDS011;5262;59.958;17.726;2022-11-14T14:57:22;6.57;;;3.27;;
10430;SDS011;5262;59.958;17.726;2022-11-14T14:59:57;4.00;;;3.00;;
10430;SDS011;5262;59.958;17.726;2022-11-14T15:02:24;3.80;;;2.57;;
10430;SDS011;5262;59.958;17.726;2022-11-14T15:04:50;3.17;;;2.87;;
10430;SDS011;5262;59.958;17.726;2022-11-14T15:07:19;8.27;;;3.00;;
10430;SDS011;5262;59.958;17.726;2022-11-14T15:09:50;3.40;;;2.97;;
10430;SDS011;5262;59.958;17.726;2022-11-14T15:12:21;16.47;;;3.90;;
10430;SDS011;5262;59.958;17.726;2022-11-14T15:14:49;4.03;;;3.50;;
10430;SDS011;5262;59.958;17.726;2022-11-14T15:17:17;3.63;;;3.30;;
10430;SDS011;5262;59.958;17.726;2022-11-14T15:19:44;4.90;;;3.23;;
10430;SDS011;5262;59.958;17.726;2022-11-14T15:24:39;8.67;;;3.70;;
10430;SDS011;5262;59.958;17.726;2022-11-14T15:27:16;29.67;;;4.97;;
10430;SDS011;5262;59.958;17.726;2022-11-14T15:29:47;11.40;;;4.30;;
10430;SDS011;5262;59.958;17.726;2022-11-14T15:32:20;9.23;;;6.63;;
10430;SDS011;5262;59.958;17.726;2022-11-14T15:37:31;4.50;;;4.00;;
10430;SDS011;5262;59.958;17.726;2022-11-14T15:42:44;5.10;;;3.97;;
10430;SDS011;5262;59.958;17.726;2022-11-14T15:45:19;5.47;;;3.47;;
10430;SDS011;5262;59.958;17.726;2022-11-14T15:48:17;5.57;;;3.97;;
10430;SDS011;5262;59.958;17.726;2022-11-14T15:50:43;4.87;;;3.90;;
10430;SDS011;5262;59.958;17.726;2022-11-14T15:55:42;4.03;;;3.63;;
10430;SDS011;5262;59.958;17.726;2022-11-14T15:58:08;7.60;;;4.13;;
10430;SDS011;5262;59.958;17.726;2022-11-14T16:00:35;7.80;;;4.93;;
10430;SDS011;5262;59.958;17.726;2022-11-14T16:03:09;5.93;;;4.43;;
10430;SDS011;5262;59.958;17.726;2022-11-14T16:05:39;5.10;;;4.00;;
10430;SDS011;5262;59.958;17.726;2022-11-14T16:08:05;10.10;;;4.07;;
10430;SDS011;5262;59.958;17.726;2022-11-14T16:10:33;5.57;;;4.53;;
10430;SDS011;5262;59.958;17.726;2022-11-14T16:12:58;3.90;;;3.60;;
10430;SDS011;5262;59.958;17.726;2022-11-14T16:15:24;5.03;;;4.07;;
10430;SDS011;5262;59.958;17.726;2022-11-14T16:17:50;4.00;;;3.60;;
10430;SDS011;5262;59.958;17.726;2022-11-14T16:20:16;7.53;;;6.23;;
10430;SDS011;5262;59.958;17.726;2022-11-14T16:22:47;5.30;;;4.50;;
10430;SDS011;5262;59.958;17.726;2022-11-14T16:27:43;10.17;;;9.00;;
10430;SDS011;5262;59.958;17.726;2022-11-14T16:30:10;5.90;;;5.27;;
10430;SDS011;5262;59.958;17.726;2022-11-14T16:32:39;7.63;;;6.83;;
10430;SDS011;5262;59.958;17.726;2022-11-14T16:35:20;7.13;;;4.83;;
10430;SDS011;5262;59.958;17.726;2022-11-14T16:37:47;5.67;;;4.40;;